Hauptseite
METAR-TAF:

METAR-TAF

Flughäfen :

Christchurch, Neuseeland

Christchurch International Airport

Breite: 43-29S, Länge: 172-33E, Höhe: 38 m

Beobachtung

Neuester Wetterbericht von vor 20 Minuten, um 15:30 UTC
Wind 4 kt aus West
Temperatur 7°C
Luftfeuchtigkeit 93%
Luftdruck 1023 hPa
Sichtweite 10 km oder mehr

METAR: NZCH 271530Z AUTO 26004KT 9999 OVC049/// 07/06 Q1023 NOSIG

Zeit: 03:50 (15:50 UTC)

Prognose

Neuester Wetterbericht von vor 1 Stunde und 23 Minuten, um 14:27 UTC
Gültige Prognose vom 27 um 14 UTC bis 28 um 12 UTC
Wind 5 kt aus West
Sichtweite 10 km oder mehr
Durchbrochene Bewölkung in der Höhe von 5000 ft
Wahrscheinlichkeit 30%
vom 27 um 14 UTC bis 27 um 21 UTC
Durchbrochene Bewölkung in der Höhe von 500 ft

TAF: NZCH 271427Z 2714/2812 26005KT 9999 BKN050 PROB30 2714/2721 BKN005

Wetterbeobachtungen und Prognosen von mehr als 4000 Flughäfen (METAR und TAF Bericht).

Die verfügbaren Stationen werden durch gelbe und rote Markierungen auf der Karte dargestellt.

Führen Sie die Maus auf sie, um den Namen der Station zu sehen.

Darauf klicken, um die Beobachtung von Wetterbeobachtungen und Prognosen zu sehen.

Um die Karte zu ändern : klicken Sie auf den grünen Tasten mit einem schwarzen Kreuz Zum Vergrößern, auf den grünen Button mit einem Gedankenstrich zu verkleinern, oder auf die grünen Pfeile für benachbarte Karten.


METAR-TAF: